.
WxDataArchive / Data Records for 2012-03-23
2012-03-22 March 2012 2012-03-24

Data Records for Friday, 23 March 2012

Time	Temp	Chill	HIndex	Humid	Dewpt	 Wind 	HiWind	WindDir	Rain 	Barom 
-----	----	-----	------	-----	-----	------	------	-------	-----	----- 
00:00	64.5	64.5	64.5	74	56.0	0	0	---	0.00	30.026 
00:05	64.5	64.5	64.5	74	56.0	0	0	---	0.00	30.026 
00:10	64.3	64.3	64.3	74	55.8	0	0	---	0.00	30.026 
00:15	64.3	64.3	64.3	74	55.8	0	0	---	0.00	30.019 
00:20	64.2	64.2	64.2	74	55.7	0	0	---	0.00	30.019 
00:25	64.2	64.2	64.2	75	56.1	0	0	---	0.00	30.019 
00:30	64.0	64.0	64.0	75	55.9	0	0	---	0.00	30.020 
00:35	64.0	64.0	64.0	76	56.3	0	0	---	0.00	30.020 
00:40	63.9	63.9	63.9	76	56.2	0	0	---	0.00	30.020 
00:45	63.9	63.9	63.9	76	56.2	0	0	---	0.00	30.018 
00:50	63.9	63.9	63.9	76	56.2	0	0	---	0.00	30.018 
00:55	63.9	63.9	63.9	75	55.8	0	0	---	0.00	30.018 
01:00	63.9	63.9	63.9	75	55.8	0	0	---	0.00	30.021 
01:05	63.9	63.9	63.9	75	55.8	0	0	---	0.00	30.021 
01:10	63.9	63.9	63.9	75	55.8	0	0	---	0.00	30.021 
01:15	63.7	63.7	63.7	75	55.6	0	0	---	0.00	30.019 
01:20	63.7	63.7	63.7	75	55.6	0	0	---	0.00	30.019 
01:25	63.7	63.7	63.7	76	56.0	0	0	---	0.00	30.019 
01:30	63.7	63.7	63.7	77	56.3	0	0	---	0.00	30.020 
01:35	63.7	63.7	63.7	77	56.3	0	0	---	0.00	30.020 
01:40	63.7	63.7	63.7	77	56.3	0	0	---	0.00	30.020 
01:45	63.7	63.7	63.7	77	56.3	0	0	---	0.00	30.014 
01:50	63.9	63.9	63.9	78	56.9	0	0	---	0.00	30.014 
01:55	63.9	63.9	63.9	77	56.5	0	0	---	0.00	30.014 
02:00	64.0	64.0	64.0	77	56.6	0	0	---	0.00	30.011 
02:05	64.0	64.0	64.0	77	56.6	0	0	---	0.00	30.011 
02:10	64.0	64.0	64.0	77	56.6	0	0	---	0.00	30.011 
02:15	64.0	64.0	64.0	77	56.6	0	0	---	0.00	30.008 
02:20	64.0	64.0	64.0	77	56.6	0	1	68	0.00	30.008 
02:25	64.0	64.0	64.0	78	57.0	0	1	68	0.00	30.008 
02:30	64.0	64.0	64.0	77	56.6	0	0	---	0.00	30.010 
02:35	64.0	64.0	64.0	77	56.6	0	0	---	0.00	30.010 
02:40	63.9	63.9	63.9	77	56.5	0	0	---	0.00	30.010 
02:45	63.9	63.9	63.9	77	56.5	0	0	---	0.00	30.003 
02:50	63.9	63.9	63.9	77	56.5	0	0	---	0.00	30.003 
02:55	63.9	63.9	63.9	78	56.9	0	0	---	0.00	30.003 
03:00	63.9	63.9	63.9	78	56.9	0	0	---	0.00	30.005 
03:05	63.7	63.7	63.7	78	56.7	0	0	---	0.00	30.005 
03:10	63.7	63.7	63.7	78	56.7	0	0	---	0.00	30.005 
03:15	63.7	63.7	63.7	78	56.7	0	1	68	0.00	30.012 
03:20	63.5	63.5	63.5	78	56.5	0	0	---	0.00	30.012 
03:25	63.5	63.5	63.5	78	56.5	0	0	---	0.00	30.012 
03:30	63.7	63.7	63.7	78	56.7	0	1	68	0.00	30.005 
03:35	63.5	63.5	63.5	78	56.5	0	0	---	0.00	30.005 
03:40	63.5	63.5	63.5	78	56.5	0	0	---	0.00	30.005 
03:45	63.5	63.5	63.5	79	56.9	0	0	---	0.00	30.003 
03:50	63.4	63.4	63.4	79	56.8	0	0	---	0.00	30.003 
03:55	63.4	63.4	63.4	80	57.1	0	0	---	0.00	30.003 
04:00	63.4	63.4	63.4	80	57.1	0	1	68	0.00	30.012 
04:05	63.2	63.2	63.2	80	56.9	0	0	---	0.00	30.012 
04:10	63.2	63.2	63.2	80	56.9	0	0	---	0.00	30.012 
04:15	63.5	63.5	63.5	80	57.2	0	1	68	0.00	30.013 
04:20	63.7	63.7	63.7	79	57.1	0	0	---	0.00	30.013 
04:25	63.7	63.7	63.7	78	56.7	0	0	---	0.00	30.013 
04:30	63.7	63.7	63.7	79	57.1	0	0	---	0.00	30.013 
04:35	63.7	63.7	63.7	79	57.1	0	0	---	0.00	30.013 
04:40	63.7	63.7	63.7	78	56.7	0	0	---	0.00	30.013 
04:45	63.7	63.7	63.7	79	57.1	0	0	---	0.00	30.012 
04:50	63.9	63.9	63.9	81	57.9	0	0	---	0.00	30.012 
04:55	63.7	63.7	63.7	82	58.1	0	0	---	0.00	30.012 
05:00	63.5	63.5	63.5	83	58.2	0	0	---	0.00	29.998 
05:05	63.4	63.4	63.4	84	58.5	0	0	---	0.00	29.998 
05:10	63.2	63.2	63.2	84	58.3	0	0	---	0.00	29.998 
05:15	63.1	63.1	63.1	84	58.2	0	0	---	0.00	30.001 
05:20	63.1	63.1	63.1	85	58.5	0	0	---	0.00	30.001 
05:25	62.9	62.9	62.9	85	58.3	0	0	---	0.00	30.001 
05:30	62.7	62.7	62.7	85	58.1	0	0	---	0.00	30.010 
05:35	62.6	62.6	62.6	85	58.0	0	0	---	0.00	30.010 
05:40	62.4	62.4	62.4	86	58.2	0	0	---	0.00	30.010 
05:45	62.3	62.3	62.3	86	58.1	0	0	---	0.00	30.015 
05:50	62.3	62.3	62.3	87	58.4	0	0	---	0.00	30.015 
05:55	62.1	62.1	62.1	87	58.2	0	0	---	0.00	30.015 
06:00	62.1	62.1	62.1	87	58.2	0	0	---	0.00	30.020 
06:05	62.0	62.0	62.0	88	58.4	0	0	---	0.01	30.020 
06:10	62.0	62.0	62.0	88	58.4	0	0	---	0.00	30.020 
06:15	61.8	61.8	61.8	88	58.2	0	0	---	0.00	30.021 
06:20	61.8	61.8	61.8	89	58.5	0	0	---	0.00	30.021 
06:25	61.8	61.8	61.8	90	58.8	0	0	---	0.00	30.021 
06:30	61.8	61.8	61.8	90	58.8	0	0	---	0.00	30.023 
06:35	61.8	61.8	61.8	90	58.8	0	0	---	0.01	30.023 
06:40	61.8	61.8	61.8	91	59.1	0	0	---	0.00	30.023 
06:45	61.8	61.8	61.8	91	59.1	0	0	---	0.00	30.026 
06:50	61.6	61.6	61.6	91	58.9	0	0	---	0.00	30.026 
06:55	61.6	61.6	61.6	92	59.2	0	0	---	0.00	30.026 
07:00	61.5	61.5	61.5	92	59.2	0	0	---	0.01	30.020 
07:05	61.5	61.5	61.5	92	59.2	0	0	---	0.00	30.020 
07:10	61.3	61.3	61.3	92	59.0	0	0	---	0.00	30.020 
07:15	61.3	61.3	61.3	92	59.0	0	0	---	0.00	30.021 
07:20	61.3	61.3	61.3	92	59.0	0	0	---	0.00	30.021 
07:25	61.3	61.3	61.3	92	59.0	0	0	---	0.00	30.021 
07:30	61.3	61.3	61.3	92	59.0	0	0	---	0.00	30.021 
07:35	61.2	61.2	61.2	93	59.2	0	0	---	0.00	30.021 
07:40	61.2	61.2	61.2	93	59.2	0	0	---	0.00	30.021 
07:45	61.2	61.2	61.2	93	59.2	0	0	---	0.00	30.021 
07:50	61.2	61.2	61.2	93	59.2	0	0	---	0.00	30.021 
07:55	61.2	61.2	61.2	93	59.2	0	0	---	0.01	30.021 
08:00	61.2	61.2	61.2	93	59.2	0	0	---	0.01	30.014 
08:05	61.0	61.0	61.0	93	59.0	0	0	---	0.00	30.014 
08:10	61.2	61.2	61.2	94	59.5	0	1	68	0.00	30.014 
08:15	61.2	61.2	61.2	94	59.5	0	0	---	0.01	30.011 
08:20	61.2	61.2	61.2	94	59.5	0	0	---	0.00	30.011 
08:25	61.2	61.2	61.2	94	59.5	0	0	---	0.00	30.011 
08:30	61.2	61.2	61.2	94	59.5	0	0	---	0.00	30.011 
08:35	61.3	61.3	61.3	94	59.6	0	1	68	0.00	30.011 
08:40	61.5	61.5	61.5	94	59.8	0	3	68	0.00	30.011 
08:45	61.5	61.5	61.5	94	59.8	1	4	68	0.00	30.008 
08:50	61.3	61.3	61.3	94	59.6	1	3	68	0.00	30.008 
08:55	61.2	61.2	61.2	94	59.5	1	2	68	0.01	30.008 
09:00	61.2	61.2	61.2	94	59.5	1	3	68	0.00	30.011 
09:05	61.0	61.0	61.0	94	59.3	1	3	68	0.00	30.011 
09:10	61.0	61.0	61.0	94	59.3	1	3	68	0.00	30.011 
09:15	60.9	60.9	60.9	94	59.2	2	4	68	0.00	30.012 
09:20	60.9	60.9	60.9	94	59.2	1	3	90	0.00	30.012 
09:25	60.9	60.9	60.9	94	59.2	1	3	90	0.00	30.012 
09:30	60.9	60.9	60.9	94	59.2	1	3	90	0.00	30.009 
09:35	60.9	60.9	60.9	94	59.2	0	0	---	0.00	30.009 
09:40	60.9	60.9	60.9	94	59.2	0	1	90	0.00	30.009 
09:45	61.0	61.0	61.0	94	59.3	0	2	90	0.00	30.006 
09:50	61.2	61.2	61.2	94	59.5	0	1	90	0.00	30.006 
09:55	61.3	61.3	61.3	94	59.6	0	3	90	0.00	30.006 
10:00	61.5	61.5	61.5	94	59.8	1	3	90	0.00	30.003 
10:05	61.6	61.6	61.6	94	59.9	1	3	90	0.00	30.003 
10:10	61.8	61.8	61.8	94	60.1	1	3	90	0.00	30.003 
10:15	61.8	61.8	61.8	94	60.1	1	3	90	0.00	30.000 
10:20	62.0	62.0	62.0	94	60.2	0	3	90	0.00	30.000 
10:25	62.1	62.1	62.1	94	60.3	1	2	90	0.00	30.000 
10:30	62.3	62.3	62.3	94	60.5	2	5	90	0.00	29.996 
10:35	62.3	62.3	62.3	93	60.2	2	6	90	0.00	29.996 
10:40	62.7	62.7	62.7	94	60.9	1	4	112	0.00	29.996 
10:45	63.4	63.4	63.4	93	61.3	1	4	112	0.00	29.991 
10:50	64.0	64.0	64.0	92	61.6	3	7	112	0.00	29.991 
10:55	64.3	64.3	64.3	90	61.3	3	6	90	0.00	29.991 
11:00	64.7	64.7	64.7	90	61.7	3	6	90	0.00	29.983 
11:05	65.0	65.0	65.0	88	61.4	3	7	90	0.00	29.983 
11:10	65.0	65.0	65.0	87	61.0	3	5	112	0.00	29.983 
11:15	65.2	65.2	65.2	87	61.2	2	5	112	0.00	29.978 
11:20	65.2	65.2	65.2	86	60.9	2	4	112	0.00	29.978 
11:25	65.0	65.0	65.0	86	60.7	2	4	112	0.00	29.978 
11:30	65.2	65.2	65.2	86	60.9	1	5	112	0.00	29.978 
11:35	65.0	65.0	65.0	86	60.7	1	3	90	0.00	29.978 
11:40	65.0	65.0	65.0	86	60.7	1	4	90	0.00	29.978 
11:45	65.0	65.0	65.0	86	60.7	2	4	90	0.00	29.982 
11:50	65.2	65.2	65.2	86	60.9	1	2	90	0.00	29.982 
11:55	65.2	65.2	65.2	85	60.6	1	4	90	0.00	29.982 
12:00	65.3	65.3	65.3	85	60.7	1	4	135	0.00	29.981 
12:05	65.3	65.3	65.3	86	61.0	1	8	135	0.00	29.981 
12:10	65.2	65.2	65.2	86	60.9	2	5	68	0.00	29.981 
12:15	65.2	65.2	65.2	87	61.2	2	4	68	0.00	29.965 
12:20	65.2	65.2	65.2	88	61.6	1	3	68	0.00	29.965 
12:25	65.2	65.2	65.2	88	61.6	2	5	68	0.00	29.965 
12:30	65.2	65.2	65.2	88	61.6	2	4	112	0.00	29.960 
12:35	65.5	65.5	65.5	88	61.8	2	5	112	0.00	29.960 
12:40	65.8	65.8	65.8	87	61.8	1	5	112	0.00	29.960 
12:45	66.0	66.0	66.0	86	61.7	2	5	112	0.00	29.950 
12:50	66.1	66.1	66.1	85	61.5	2	4	90	0.00	29.950 
12:55	66.1	66.1	66.1	85	61.5	1	3	90	0.00	29.950 
13:00	66.1	66.1	66.1	85	61.5	2	3	90	0.00	29.943 
13:05	66.0	66.0	66.0	84	61.0	2	4	90	0.00	29.943 
13:10	66.0	66.0	66.0	84	61.0	1	3	90	0.00	29.943 
13:15	66.0	66.0	66.0	84	61.0	1	3	90	0.00	29.933 
13:20	66.0	66.0	66.0	84	61.0	1	5	90	0.00	29.933 
13:25	66.1	66.1	66.1	85	61.5	2	5	68	0.00	29.933 
13:30	66.3	66.3	66.3	86	62.0	1	4	68	0.01	29.931 
13:35	66.3	66.3	66.3	86	62.0	2	5	68	0.00	29.931 
13:40	66.3	66.3	66.3	87	62.3	2	4	68	0.00	29.931 
13:45	66.3	66.3	66.3	85	61.6	2	6	112	0.00	29.925 
13:50	66.3	66.3	66.3	86	62.0	2	5	112	0.00	29.925 
13:55	66.1	66.1	66.1	86	61.8	2	4	112	0.00	29.925 
14:00	66.0	66.0	66.0	86	61.7	3	5	112	0.00	29.921 
14:05	66.0	66.0	66.0	87	62.0	1	3	112	0.00	29.921 
14:10	66.0	66.0	66.0	87	62.0	2	5	112	0.00	29.921 
14:15	66.0	66.0	66.0	88	62.3	0	2	68	0.00	29.918 
14:20	66.0	66.0	66.0	88	62.3	1	3	68	0.00	29.918 
14:25	65.8	65.8	65.8	88	62.1	2	3	135	0.00	29.918 
14:30	65.6	65.6	65.6	89	62.3	1	3	135	0.01	29.914 
14:35	65.6	65.6	65.6	89	62.3	1	3	68	0.00	29.914 
14:40	65.5	65.5	65.5	90	62.5	0	1	68	0.01	29.914 
14:45	65.5	65.5	65.5	90	62.5	1	3	68	0.00	29.901 
14:50	65.5	65.5	65.5	90	62.5	1	3	68	0.01	29.901 
14:55	65.3	65.3	65.3	91	62.6	1	2	68	0.00	29.901 
15:00	65.3	65.3	65.3	91	62.6	1	2	68	0.00	29.899 
15:05	65.2	65.2	65.2	91	62.5	2	5	68	0.01	29.899 
15:10	65.3	65.3	65.3	92	62.9	2	4	68	0.00	29.899 
15:15	65.3	65.3	65.3	92	62.9	2	4	68	0.00	29.886 
15:20	65.5	65.5	65.5	92	63.1	2	5	90	0.00	29.886 
15:25	65.5	65.5	65.5	92	63.1	1	5	90	0.00	29.886 
15:30	65.5	65.5	65.5	92	63.1	2	5	112	0.00	29.876 
15:35	65.5	65.5	65.5	92	63.1	3	6	112	0.00	29.876 
15:40	65.5	65.5	65.5	92	63.1	1	4	112	0.00	29.876 
15:45	65.5	65.5	65.5	92	63.1	3	6	90	0.00	29.863 
15:50	65.3	65.3	65.3	92	62.9	4	7	112	0.00	29.863 
15:55	65.2	65.2	65.2	92	62.8	3	5	90	0.00	29.863 
16:00	64.8	64.8	64.8	91	62.1	3	7	112	0.00	29.857 
16:05	64.8	64.8	64.8	91	62.1	3	6	90	0.01	29.857 
16:10	64.7	64.7	64.7	91	62.0	3	5	90	0.00	29.857 
16:15	64.7	64.7	64.7	91	62.0	2	4	90	0.01	29.854 
16:20	64.7	64.7	64.7	91	62.0	2	6	112	0.01	29.854 
16:25	64.5	64.5	64.5	92	62.1	1	4	112	0.01	29.854 
16:30	64.5	64.5	64.5	92	62.1	2	4	112	0.01	29.850 
16:35	64.5	64.5	64.5	92	62.1	2	5	90	0.00	29.850 
16:40	64.5	64.5	64.5	93	62.4	2	5	90	0.01	29.850 
16:45	64.3	64.3	64.3	93	62.2	1	3	90	0.00	29.851 
16:50	64.5	64.5	64.5	93	62.4	2	4	112	0.00	29.851 
16:55	64.3	64.3	64.3	93	62.2	3	6	90	0.00	29.851 
17:00	64.3	64.3	64.3	93	62.2	2	5	112	0.01	29.852 
17:05	64.2	64.2	64.2	93	62.1	3	6	90	0.00	29.852 
17:10	64.0	64.0	64.0	93	61.9	3	7	112	0.00	29.852 
17:15	64.0	64.0	64.0	93	61.9	2	5	90	0.01	29.854 
17:20	63.9	63.9	63.9	93	61.8	3	6	112	0.04	29.854 
17:25	63.9	63.9	63.9	93	61.8	1	2	112	0.01	29.854 
17:30	63.7	63.7	63.7	93	61.6	2	5	112	0.00	29.849 
17:35	63.7	63.7	63.7	94	61.9	2	5	135	0.00	29.849 
17:40	63.7	63.7	63.7	94	61.9	1	4	112	0.00	29.849 
17:45	63.7	63.7	63.7	94	61.9	1	3	112	0.00	29.845 
17:50	63.7	63.7	63.7	94	61.9	1	3	90	0.00	29.845 
17:55	63.7	63.7	63.7	94	61.9	1	3	90	0.01	29.845 
18:00	63.5	63.5	63.5	94	61.7	1	5	112	0.02	29.850 
18:05	63.4	63.4	63.4	94	61.6	2	9	90	0.03	29.850 
18:10	63.2	63.2	63.2	94	61.4	1	4	112	0.01	29.850 
18:15	63.1	63.1	63.1	94	61.3	1	3	90	0.02	29.841 
18:20	63.1	63.1	63.1	94	61.3	1	4	90	0.01	29.841 
18:25	62.9	62.9	62.9	94	61.1	1	3	135	0.01	29.841 
18:30	62.9	62.9	62.9	94	61.1	1	4	90	0.02	29.841 
18:35	62.9	62.9	62.9	94	61.1	1	3	90	0.01	29.841 
18:40	62.9	62.9	62.9	94	61.1	1	3	90	0.01	29.841 
18:45	62.9	62.9	62.9	94	61.1	1	3	90	0.00	29.840 
18:50	62.6	62.6	62.6	94	60.8	1	3	112	0.01	29.840 
18:55	62.3	62.3	62.3	94	60.5	0	2	112	0.00	29.840 
19:00	62.1	62.1	62.1	94	60.3	0	1	112	0.00	29.832 
19:05	61.6	61.6	61.6	93	59.6	1	2	135	0.00	29.832 
19:10	61.3	61.3	61.3	93	59.3	1	2	135	0.00	29.832 
19:15	61.2	61.2	61.2	93	59.2	0	1	135	0.00	29.831 
19:20	61.2	61.2	61.2	93	59.2	0	1	135	0.00	29.831 
19:25	61.2	61.2	61.2	93	59.2	0	1	135	0.00	29.831 
19:30	61.2	61.2	61.2	93	59.2	0	1	135	0.01	29.841 
19:35	61.3	61.3	61.3	94	59.6	2	4	112	0.00	29.841 
19:40	61.2	61.2	61.2	93	59.2	1	6	90	0.01	29.841 
19:45	60.9	60.9	60.9	93	58.9	2	5	68	0.00	29.818 
19:50	60.5	60.5	60.5	92	58.2	3	5	90	0.00	29.818 
19:55	60.4	60.4	60.4	92	58.1	2	4	90	0.01	29.818 
20:00	60.4	60.4	60.4	92	58.1	0	3	90	0.00	29.822 
20:05	60.4	60.4	60.4	92	58.1	0	3	90	0.00	29.822 
20:10	60.2	60.2	60.2	92	57.9	0	3	202	0.00	29.822 
20:15	60.2	60.2	60.2	92	57.9	0	2	158	0.00	29.825 
20:20	60.1	60.1	60.1	92	57.8	1	3	158	0.00	29.825 
20:25	60.1	60.1	60.1	92	57.8	0	1	158	0.00	29.825 
20:30	60.1	60.1	60.1	92	57.8	0	3	158	0.00	29.829 
20:35	60.1	60.1	60.1	93	58.1	0	3	112	0.00	29.829 
20:40	60.1	60.1	60.1	92	57.8	0	2	112	0.00	29.829 
20:45	60.1	60.1	60.1	92	57.8	0	1	112	0.00	29.834 
20:50	59.9	59.9	59.9	92	57.6	0	1	112	0.00	29.834 
20:55	59.9	59.9	59.9	92	57.6	0	0	---	0.00	29.834 
21:00	59.9	59.9	59.9	92	57.6	0	0	---	0.00	29.843 
21:05	59.9	59.9	59.9	93	57.9	0	1	112	0.00	29.843 
21:10	59.9	59.9	59.9	93	57.9	1	2	112	0.00	29.843 
21:15	60.1	60.1	60.1	93	58.1	1	2	112	0.00	29.855 
21:20	60.1	60.1	60.1	93	58.1	0	1	135	0.00	29.855 
21:25	59.9	59.9	59.9	93	57.9	0	1	135	0.00	29.855 
21:30	59.9	59.9	59.9	93	57.9	0	1	135	0.00	29.853 
21:35	59.8	59.8	59.8	93	57.8	0	1	135	0.00	29.853 
21:40	59.8	59.8	59.8	93	57.8	0	0	---	0.00	29.853 
21:45	59.6	59.6	59.6	93	57.6	0	0	---	0.00	29.851 
21:50	59.6	59.6	59.6	93	57.6	0	0	---	0.00	29.851 
21:55	59.6	59.6	59.6	93	57.6	0	0	---	0.00	29.851 
22:00	59.6	59.6	59.6	94	57.9	0	0	---	0.00	29.842 
22:05	59.6	59.6	59.6	94	57.9	0	0	---	0.00	29.842 
22:10	59.6	59.6	59.6	94	57.9	0	0	---	0.00	29.842 
22:15	59.6	59.6	59.6	94	57.9	0	0	---	0.00	29.830 
22:20	59.5	59.5	59.5	94	57.8	0	0	---	0.00	29.830 
22:25	59.5	59.5	59.5	94	57.8	0	0	---	0.00	29.830 
22:30	59.3	59.3	59.3	94	57.6	0	0	---	0.00	29.827 
22:35	59.3	59.3	59.3	94	57.6	0	0	---	0.00	29.827 
22:40	59.2	59.2	59.2	94	57.5	0	0	---	0.00	29.827 
22:45	59.2	59.2	59.2	94	57.5	0	0	---	0.00	29.815 
22:50	59.2	59.2	59.2	94	57.5	0	0	---	0.00	29.815 
22:55	59.2	59.2	59.2	94	57.5	0	0	---	0.00	29.815 
23:00	59.0	59.0	59.0	94	57.3	0	0	---	0.00	29.818 
23:05	59.0	59.0	59.0	94	57.3	0	0	---	0.00	29.818 
23:10	58.9	58.9	58.9	94	57.2	0	0	---	0.00	29.818 
23:15	58.9	58.9	58.9	94	57.2	0	0	---	0.00	29.820 
23:20	58.7	58.7	58.7	94	57.0	0	0	---	0.00	29.820 
23:25	58.9	58.9	58.9	95	57.5	0	0	---	0.00	29.820 
23:30	58.9	58.9	58.9	95	57.5	0	0	---	0.00	29.809 
23:35	58.7	58.7	58.7	95	57.3	0	1	135	0.00	29.809 
23:40	58.6	58.6	58.6	95	57.2	0	1	135	0.00	29.809 
23:45	58.6	58.6	58.6	95	57.2	0	1	135	0.00	29.815 
23:50	58.6	58.6	58.6	95	57.2	0	0	---	0.00	29.815 
23:55	58.6	58.6	58.6	95	57.2	0	0	---	0.00	29.815 

CoCoRaHS
IN-AL-39
A2 Web Hosting
Creative Commons License
GoDaddy
search engine by freefind advanced

loaded 2018-11-13 17:28:38 • last modified 2010-11-18 10:43:29
Privacy PolicyDisclaimer
• wx.awcolley.com is powered by PmWiki v.2002016 •
• all content (unless otherwise noted) © 2018 A W Colley